sensor_id;sensor_type;location;lat;lon;timestamp;pressure;altitude;pressure_sealevel;temperature;humidity
27984;BME280;15317;50.360;8.726;2022-12-07T00:00:00;99533.16;;;2.65;100.00
27984;BME280;15317;50.360;8.726;2022-12-07T00:04:04;99527.16;;;2.61;100.00
27984;BME280;15317;50.360;8.726;2022-12-07T00:08:07;99520.06;;;2.60;100.00
27984;BME280;15317;50.360;8.726;2022-12-07T00:12:09;99515.69;;;2.59;100.00
27984;BME280;15317;50.360;8.726;2022-12-07T00:16:13;99515.56;;;2.61;100.00
27984;BME280;15317;50.360;8.726;2022-12-07T00:20:17;99505.69;;;2.61;100.00
27984;BME280;15317;50.360;8.726;2022-12-07T00:24:19;99502.06;;;2.62;100.00
27984;BME280;15317;50.360;8.726;2022-12-07T00:28:21;99500.13;;;2.64;100.00
27984;BME280;15317;50.360;8.726;2022-12-07T00:32:23;99493.91;;;2.64;100.00
27984;BME280;15317;50.360;8.726;2022-12-07T00:36:28;99494.78;;;2.64;100.00
27984;BME280;15317;50.360;8.726;2022-12-07T00:40:30;99484.25;;;2.61;100.00
27984;BME280;15317;50.360;8.726;2022-12-07T00:44:32;99473.44;;;2.63;100.00
27984;BME280;15317;50.360;8.726;2022-12-07T00:48:34;99481.06;;;2.56;100.00
27984;BME280;15317;50.360;8.726;2022-12-07T00:52:37;99489.94;;;2.57;100.00
27984;BME280;15317;50.360;8.726;2022-12-07T00:56:39;99482.97;;;2.54;100.00
27984;BME280;15317;50.360;8.726;2022-12-07T01:00:42;99475.78;;;2.55;100.00
27984;BME280;15317;50.360;8.726;2022-12-07T01:04:45;99467.84;;;2.53;100.00
27984;BME280;15317;50.360;8.726;2022-12-07T01:08:48;99478.38;;;2.56;100.00
27984;BME280;15317;50.360;8.726;2022-12-07T01:12:51;99465.41;;;2.50;100.00
27984;BME280;15317;50.360;8.726;2022-12-07T01:16:53;99471.72;;;2.49;100.00
27984;BME280;15317;50.360;8.726;2022-12-07T01:20:59;99471.84;;;2.48;100.00
27984;BME280;15317;50.360;8.726;2022-12-07T01:25:03;99469.25;;;2.46;100.00
27984;BME280;15317;50.360;8.726;2022-12-07T01:29:05;99465.84;;;2.44;100.00
27984;BME280;15317;50.360;8.726;2022-12-07T01:33:07;99468.28;;;2.47;100.00
27984;BME280;15317;50.360;8.726;2022-12-07T01:37:09;99470.25;;;2.45;100.00
27984;BME280;15317;50.360;8.726;2022-12-07T01:41:14;99476.34;;;2.47;100.00
27984;BME280;15317;50.360;8.726;2022-12-07T01:45:38;99472.50;;;2.51;100.00
27984;BME280;15317;50.360;8.726;2022-12-07T01:49:43;99457.88;;;2.55;100.00
27984;BME280;15317;50.360;8.726;2022-12-07T01:53:46;99455.09;;;2.57;100.00
27984;BME280;15317;50.360;8.726;2022-12-07T01:57:52;99455.97;;;2.57;100.00
27984;BME280;15317;50.360;8.726;2022-12-07T02:01:55;99464.63;;;2.61;100.00
27984;BME280;15317;50.360;8.726;2022-12-07T02:05:58;99453.44;;;2.67;100.00
27984;BME280;15317;50.360;8.726;2022-12-07T02:10:12;99450.56;;;2.70;100.00
27984;BME280;15317;50.360;8.726;2022-12-07T02:14:16;99447.78;;;2.71;100.00
27984;BME280;15317;50.360;8.726;2022-12-07T02:18:22;99441.44;;;2.72;100.00
27984;BME280;15317;50.360;8.726;2022-12-07T02:27:22;99434.47;;;2.70;100.00
27984;BME280;15317;50.360;8.726;2022-12-07T02:31:31;99420.97;;;2.71;100.00
27984;BME280;15317;50.360;8.726;2022-12-07T02:35:37;99426.06;;;2.74;100.00
27984;BME280;15317;50.360;8.726;2022-12-07T02:39:43;99433.16;;;2.75;100.00
27984;BME280;15317;50.360;8.726;2022-12-07T02:43:52;99424.25;;;2.75;100.00
27984;BME280;15317;50.360;8.726;2022-12-07T02:47:58;99434.53;;;2.81;100.00
27984;BME280;15317;50.360;8.726;2022-12-07T02:52:02;99431.81;;;2.94;100.00
27984;BME280;15317;50.360;8.726;2022-12-07T02:56:09;99424.09;;;2.89;100.00
27984;BME280;15317;50.360;8.726;2022-12-07T03:00:16;99430.13;;;2.93;100.00
27984;BME280;15317;50.360;8.726;2022-12-07T03:04:32;99431.81;;;2.94;100.00
27984;BME280;15317;50.360;8.726;2022-12-07T03:08:44;99425.47;;;2.95;100.00
27984;BME280;15317;50.360;8.726;2022-12-07T03:12:58;99413.56;;;2.99;100.00
27984;BME280;15317;50.360;8.726;2022-12-07T03:17:08;99420.97;;;2.95;100.00
27984;BME280;15317;50.360;8.726;2022-12-07T03:21:17;99414.53;;;2.98;100.00
27984;BME280;15317;50.360;8.726;2022-12-07T03:25:21;99408.41;;;2.96;100.00
27984;BME280;15317;50.360;8.726;2022-12-07T03:29:27;99410.00;;;2.98;100.00
27984;BME280;15317;50.360;8.726;2022-12-07T03:33:34;99402.88;;;3.10;100.00
27984;BME280;15317;50.360;8.726;2022-12-07T03:37:42;99401.63;;;3.03;100.00
27984;BME280;15317;50.360;8.726;2022-12-07T03:41:47;99400.66;;;3.04;100.00
27984;BME280;15317;50.360;8.726;2022-12-07T03:45:58;99396.06;;;3.17;100.00
27984;BME280;15317;50.360;8.726;2022-12-07T03:50:05;99401.16;;;3.09;100.00
27984;BME280;15317;50.360;8.726;2022-12-07T03:54:14;99405.34;;;3.13;100.00
27984;BME280;15317;50.360;8.726;2022-12-07T03:58:20;99393.34;;;3.06;100.00
27984;BME280;15317;50.360;8.726;2022-12-07T04:02:23;99396.28;;;3.14;100.00
27984;BME280;15317;50.360;8.726;2022-12-07T04:06:26;99402.88;;;3.10;100.00
27984;BME280;15317;50.360;8.726;2022-12-07T04:10:30;99402.13;;;3.08;100.00
27984;BME280;15317;50.360;8.726;2022-12-07T04:14:32;99405.44;;;3.11;100.00
27984;BME280;15317;50.360;8.726;2022-12-07T04:18:34;99408.13;;;3.11;100.00
27984;BME280;15317;50.360;8.726;2022-12-07T04:22:36;99387.28;;;3.15;100.00
27984;BME280;15317;50.360;8.726;2022-12-07T04:26:40;99383.91;;;3.24;100.00
27984;BME280;15317;50.360;8.726;2022-12-07T04:30:42;99381.22;;;3.24;100.00
27984;BME280;15317;50.360;8.726;2022-12-07T04:34:44;99381.22;;;3.24;100.00
27984;BME280;15317;50.360;8.726;2022-12-07T04:38:46;99396.84;;;3.30;100.00
27984;BME280;15317;50.360;8.726;2022-12-07T04:42:50;99390.88;;;3.27;100.00
27984;BME280;15317;50.360;8.726;2022-12-07T04:46:52;99387.94;;;3.30;100.00
27984;BME280;15317;50.360;8.726;2022-12-07T04:50:55;99388.69;;;3.32;100.00
27984;BME280;15317;50.360;8.726;2022-12-07T04:54:57;99383.44;;;3.30;100.00
27984;BME280;15317;50.360;8.726;2022-12-07T04:59:01;99386.97;;;3.31;100.00
27984;BME280;15317;50.360;8.726;2022-12-07T05:03:04;99382.25;;;3.34;100.00
27984;BME280;15317;50.360;8.726;2022-12-07T05:07:06;99377.84;;;3.33;100.00
27984;BME280;15317;50.360;8.726;2022-12-07T05:11:09;99385.91;;;3.33;100.00
27984;BME280;15317;50.360;8.726;2022-12-07T05:15:32;99386.41;;;3.38;100.00
27984;BME280;15317;50.360;8.726;2022-12-07T05:19:34;99385.66;;;3.36;100.00
27984;BME280;15317;50.360;8.726;2022-12-07T05:23:36;99388.44;;;3.35;100.00
27984;BME280;15317;50.360;8.726;2022-12-07T05:27:38;99391.25;;;3.33;100.00
27984;BME280;15317;50.360;8.726;2022-12-07T05:31:42;99391.25;;;3.33;100.00
27984;BME280;15317;50.360;8.726;2022-12-07T05:35:44;99385.91;;;3.33;100.00
27984;BME280;15317;50.360;8.726;2022-12-07T05:39:46;99396.63;;;3.33;100.00
27984;BME280;15317;50.360;8.726;2022-12-07T05:43:48;99383.00;;;3.47;100.00
27984;BME280;15317;50.360;8.726;2022-12-07T05:47:52;99385.31;;;3.41;100.00
27984;BME280;15317;50.360;8.726;2022-12-07T05:51:54;99387.84;;;3.42;100.00
27984;BME280;15317;50.360;8.726;2022-12-07T05:55:56;99384.09;;;3.45;100.00
27984;BME280;15317;50.360;8.726;2022-12-07T05:59:58;99375.06;;;3.46;100.00
27984;BME280;15317;50.360;8.726;2022-12-07T06:04:01;99382.47;;;3.42;100.00
27984;BME280;15317;50.360;8.726;2022-12-07T06:08:03;99388.50;;;3.46;100.00
27984;BME280;15317;50.360;8.726;2022-12-07T06:12:05;99383.22;;;3.44;100.00
27984;BME280;15317;50.360;8.726;2022-12-07T06:16:26;99375.53;;;3.40;100.00
27984;BME280;15317;50.360;8.726;2022-12-07T06:20:29;99392.91;;;3.47;100.00
27984;BME280;15317;50.360;8.726;2022-12-07T06:24:32;99387.63;;;3.45;100.00
27984;BME280;15317;50.360;8.726;2022-12-07T06:28:34;99390.78;;;3.39;100.00
27984;BME280;15317;50.360;8.726;2022-12-07T06:32:36;99392.72;;;3.37;100.00
27984;BME280;15317;50.360;8.726;2022-12-07T06:36:40;99391.75;;;3.38;100.00
27984;BME280;15317;50.360;8.726;2022-12-07T06:40:42;99400.03;;;3.35;100.00
27984;BME280;15317;50.360;8.726;2022-12-07T06:44:44;99403.00;;;3.43;100.00
27984;BME280;15317;50.360;8.726;2022-12-07T06:48:46;99408.63;;;3.40;100.00
27984;BME280;15317;50.360;8.726;2022-12-07T06:52:50;99396.16;;;3.39;100.00
27984;BME280;15317;50.360;8.726;2022-12-07T06:56:52;99393.22;;;3.42;100.00
27984;BME280;15317;50.360;8.726;2022-12-07T07:00:54;99406.91;;;3.39;100.00
27984;BME280;15317;50.360;8.726;2022-12-07T07:04:56;99400.78;;;3.37;100.00
27984;BME280;15317;50.360;8.726;2022-12-07T07:09:00;99395.91;;;3.42;100.00
27984;BME280;15317;50.360;8.726;2022-12-07T07:13:02;99400.31;;;3.43;100.00
27984;BME280;15317;50.360;8.726;2022-12-07T07:17:04;99396.88;;;3.41;100.00
27984;BME280;15317;50.360;8.726;2022-12-07T07:21:06;99394.56;;;3.37;100.00
27984;BME280;15317;50.360;8.726;2022-12-07T07:25:10;99406.25;;;3.36;100.00
27984;BME280;15317;50.360;8.726;2022-12-07T07:29:12;99407.13;;;3.36;100.00
27984;BME280;15317;50.360;8.726;2022-12-07T07:33:20;99407.75;;;3.40;100.00
27984;BME280;15317;50.360;8.726;2022-12-07T07:37:22;99415.22;;;3.47;100.00
27984;BME280;15317;50.360;8.726;2022-12-07T07:41:26;99409.00;;;3.47;100.00
27984;BME280;15317;50.360;8.726;2022-12-07T07:45:28;99400.31;;;3.43;100.00
27984;BME280;15317;50.360;8.726;2022-12-07T07:49:30;99406.16;;;3.37;100.00
27984;BME280;15317;50.360;8.726;2022-12-07T07:53:32;99418.09;;;3.33;100.00
27984;BME280;15317;50.360;8.726;2022-12-07T07:57:37;99413.81;;;3.31;100.00
27984;BME280;15317;50.360;8.726;2022-12-07T08:01:39;99421.97;;;3.29;100.00
27984;BME280;15317;50.360;8.726;2022-12-07T08:05:42;99414.00;;;4.20;100.00
27984;BME280;15317;50.360;8.726;2022-12-07T08:09:44;99416.78;;;5.49;100.00
27984;BME280;15317;50.360;8.726;2022-12-07T08:13:47;99408.53;;;5.62;100.00
27984;BME280;15317;50.360;8.726;2022-12-07T08:17:50;99419.88;;;5.44;100.00
27984;BME280;15317;50.360;8.726;2022-12-07T08:21:52;99422.75;;;7.16;100.00
27984;BME280;15317;50.360;8.726;2022-12-07T08:25:59;99429.53;;;8.25;90.87
27984;BME280;15317;50.360;8.726;2022-12-07T08:30:04;99442.66;;;8.94;84.71
27984;BME280;15317;50.360;8.726;2022-12-07T08:34:06;99436.28;;;10.45;74.53
27984;BME280;15317;50.360;8.726;2022-12-07T08:38:08;99450.94;;;10.09;71.66
27984;BME280;15317;50.360;8.726;2022-12-07T08:42:10;99434.47;;;8.77;78.10
27984;BME280;15317;50.360;8.726;2022-12-07T08:46:19;99439.56;;;7.29;85.36
27984;BME280;15317;50.360;8.726;2022-12-07T08:50:23;99443.13;;;6.19;94.16
27984;BME280;15317;50.360;8.726;2022-12-07T08:54:25;99440.00;;;5.61;99.73
27984;BME280;15317;50.360;8.726;2022-12-07T08:58:29;99438.34;;;5.49;100.00
27984;BME280;15317;50.360;8.726;2022-12-07T09:02:32;99431.75;;;5.42;100.00
27984;BME280;15317;50.360;8.726;2022-12-07T09:06:34;99429.41;;;5.16;100.00
27984;BME280;15317;50.360;8.726;2022-12-07T09:10:37;99435.28;;;6.37;100.00
27984;BME280;15317;50.360;8.726;2022-12-07T09:14:39;99441.28;;;9.88;79.28
27984;BME280;15317;50.360;8.726;2022-12-07T09:18:42;99457.72;;;12.23;67.92
27984;BME280;15317;50.360;8.726;2022-12-07T09:22:44;99463.66;;;14.21;58.12
27984;BME280;15317;50.360;8.726;2022-12-07T09:26:46;99464.09;;;13.88;55.42
27984;BME280;15317;50.360;8.726;2022-12-07T09:30:49;99466.94;;;14.17;52.18
27984;BME280;15317;50.360;8.726;2022-12-07T09:34:52;99470.50;;;16.08;49.04
27984;BME280;15317;50.360;8.726;2022-12-07T09:38:55;99470.47;;;16.79;47.39
27984;BME280;15317;50.360;8.726;2022-12-07T09:42:57;99476.28;;;16.90;45.72
27984;BME280;15317;50.360;8.726;2022-12-07T09:46:59;99480.41;;;17.55;43.16
27984;BME280;15317;50.360;8.726;2022-12-07T09:51:13;99481.63;;;17.87;42.58
27984;BME280;15317;50.360;8.726;2022-12-07T09:55:19;99480.34;;;16.73;43.62
27984;BME280;15317;50.360;8.726;2022-12-07T09:59:25;99480.66;;;18.28;40.70
27984;BME280;15317;50.360;8.726;2022-12-07T10:03:28;99471.06;;;16.25;44.86
27984;BME280;15317;50.360;8.726;2022-12-07T10:07:31;99457.97;;;13.63;49.05
27984;BME280;15317;50.360;8.726;2022-12-07T10:11:33;99439.09;;;10.10;59.49
27984;BME280;15317;50.360;8.726;2022-12-07T10:15:44;99427.41;;;8.10;70.34
27984;BME280;15317;50.360;8.726;2022-12-07T10:19:47;99421.91;;;7.73;75.34
27984;BME280;15317;50.360;8.726;2022-12-07T10:24:01;99424.69;;;7.04;79.22
27984;BME280;15317;50.360;8.726;2022-12-07T10:28:12;99422.47;;;6.69;83.29
27984;BME280;15317;50.360;8.726;2022-12-07T10:32:30;99421.00;;;6.95;83.93
27984;BME280;15317;50.360;8.726;2022-12-07T10:36:36;99420.97;;;6.86;84.57
27984;BME280;15317;50.360;8.726;2022-12-07T10:40:39;99412.31;;;6.92;83.06
27984;BME280;15317;50.360;8.726;2022-12-07T10:44:41;99405.00;;;6.63;84.75
27984;BME280;15317;50.360;8.726;2022-12-07T10:48:50;99410.78;;;6.99;84.74
27984;BME280;15317;50.360;8.726;2022-12-07T10:53:06;99407.66;;;7.03;82.70
27984;BME280;15317;50.360;8.726;2022-12-07T10:57:29;99399.69;;;6.92;83.38
27984;BME280;15317;50.360;8.726;2022-12-07T11:01:39;99397.63;;;6.65;85.21
27984;BME280;15317;50.360;8.726;2022-12-07T11:05:52;99397.69;;;6.45;87.85
27984;BME280;15317;50.360;8.726;2022-12-07T11:10:02;99398.44;;;6.56;87.88
27984;BME280;15317;50.360;8.726;2022-12-07T11:14:16;99391.22;;;6.66;84.55
27984;BME280;15317;50.360;8.726;2022-12-07T11:18:24;99386.88;;;6.85;85.07
27984;BME280;15317;50.360;8.726;2022-12-07T11:22:36;99376.34;;;6.32;86.30
27984;BME280;15317;50.360;8.726;2022-12-07T11:26:56;99371.19;;;6.59;87.71
27984;BME280;15317;50.360;8.726;2022-12-07T11:31:12;99363.56;;;6.84;86.49
27984;BME280;15317;50.360;8.726;2022-12-07T11:35:24;99364.59;;;7.02;84.78
27984;BME280;15317;50.360;8.726;2022-12-07T11:39:31;99354.50;;;6.94;84.37
27984;BME280;15317;50.360;8.726;2022-12-07T11:43:35;99354.06;;;7.18;84.71
27984;BME280;15317;50.360;8.726;2022-12-07T11:47:45;99345.13;;;7.18;83.52
27984;BME280;15317;50.360;8.726;2022-12-07T11:51:49;99345.97;;;7.18;83.55
27984;BME280;15317;50.360;8.726;2022-12-07T11:55:57;99341.16;;;7.02;82.68
27984;BME280;15317;50.360;8.726;2022-12-07T12:00:02;99338.00;;;6.97;83.04
27984;BME280;15317;50.360;8.726;2022-12-07T12:04:20;99343.69;;;6.85;85.23
27984;BME280;15317;50.360;8.726;2022-12-07T12:08:28;99340.78;;;6.48;85.51
27984;BME280;15317;50.360;8.726;2022-12-07T12:12:46;99341.97;;;6.24;88.21
27984;BME280;15317;50.360;8.726;2022-12-07T12:17:08;99338.09;;;6.17;89.83
27984;BME280;15317;50.360;8.726;2022-12-07T12:21:18;99330.41;;;6.13;90.43
27984;BME280;15317;50.360;8.726;2022-12-07T12:25:25;99333.50;;;6.08;91.53
27984;BME280;15317;50.360;8.726;2022-12-07T12:29:32;99325.66;;;5.95;93.44
27984;BME280;15317;50.360;8.726;2022-12-07T12:33:35;99314.97;;;5.43;98.42
27984;BME280;15317;50.360;8.726;2022-12-07T12:37:46;99325.47;;;5.46;99.96
27984;BME280;15317;50.360;8.726;2022-12-07T12:41:59;99325.47;;;5.46;99.84
27984;BME280;15317;50.360;8.726;2022-12-07T12:46:45;99322.84;;;5.35;99.78
27984;BME280;15317;50.360;8.726;2022-12-07T12:50:48;99321.13;;;5.34;99.52
27984;BME280;15317;50.360;8.726;2022-12-07T12:55:00;99317.25;;;5.68;97.98
27984;BME280;15317;50.360;8.726;2022-12-07T12:59:25;99322.41;;;5.50;98.42
27984;BME280;15317;50.360;8.726;2022-12-07T13:03:29;99316.16;;;5.50;99.05
27984;BME280;15317;50.360;8.726;2022-12-07T13:07:53;99318.88;;;5.80;97.65
27984;BME280;15317;50.360;8.726;2022-12-07T13:12:00;99317.56;;;5.75;97.11
27984;BME280;15317;50.360;8.726;2022-12-07T13:20:54;99303.66;;;5.70;96.68
27984;BME280;15317;50.360;8.726;2022-12-07T13:25:02;99307.19;;;5.70;97.00
27984;BME280;15317;50.360;8.726;2022-12-07T13:29:11;99306.34;;;5.49;96.15
27984;BME280;15317;50.360;8.726;2022-12-07T13:33:15;99301.19;;;5.36;97.76
27984;BME280;15317;50.360;8.726;2022-12-07T13:37:23;99301.72;;;5.30;98.04
27984;BME280;15317;50.360;8.726;2022-12-07T13:41:29;99299.13;;;5.08;99.24
27984;BME280;15317;50.360;8.726;2022-12-07T13:45:33;99287.34;;;4.88;100.00
27984;BME280;15317;50.360;8.726;2022-12-07T13:49:52;99284.38;;;4.70;100.00
27984;BME280;15317;50.360;8.726;2022-12-07T13:53:56;99288.78;;;4.60;100.00
27984;BME280;15317;50.360;8.726;2022-12-07T13:58:01;99294.34;;;4.48;100.00
27984;BME280;15317;50.360;8.726;2022-12-07T14:02:18;99281.97;;;4.56;100.00
27984;BME280;15317;50.360;8.726;2022-12-07T14:06:26;99273.50;;;4.61;100.00
27984;BME280;15317;50.360;8.726;2022-12-07T14:10:30;99281.19;;;4.65;100.00
27984;BME280;15317;50.360;8.726;2022-12-07T14:14:32;99280.59;;;4.62;100.00
27984;BME280;15317;50.360;8.726;2022-12-07T14:18:40;99283.06;;;4.54;100.00
27984;BME280;15317;50.360;8.726;2022-12-07T14:22:42;99294.34;;;4.48;100.00
27984;BME280;15317;50.360;8.726;2022-12-07T14:26:45;99285.75;;;4.54;100.00
27984;BME280;15317;50.360;8.726;2022-12-07T14:30:48;99284.69;;;4.45;100.00
27984;BME280;15317;50.360;8.726;2022-12-07T14:34:55;99276.38;;;4.37;100.00
27984;BME280;15317;50.360;8.726;2022-12-07T14:38:58;99271.66;;;4.18;100.00
27984;BME280;15317;50.360;8.726;2022-12-07T14:43:01;99262.16;;;4.03;100.00
27984;BME280;15317;50.360;8.726;2022-12-07T14:47:04;99252.28;;;3.92;100.00
27984;BME280;15317;50.360;8.726;2022-12-07T14:51:10;99259.00;;;3.76;100.00
27984;BME280;15317;50.360;8.726;2022-12-07T14:55:20;99259.25;;;3.73;100.00
27984;BME280;15317;50.360;8.726;2022-12-07T14:59:24;99256.69;;;3.71;100.00
27984;BME280;15317;50.360;8.726;2022-12-07T15:03:26;99249.34;;;3.84;100.00
27984;BME280;15317;50.360;8.726;2022-12-07T15:07:32;99255.00;;;3.81;100.00
27984;BME280;15317;50.360;8.726;2022-12-07T15:11:35;99256.94;;;3.79;100.00
27984;BME280;15317;50.360;8.726;2022-12-07T15:15:37;99247.53;;;3.85;100.00
27984;BME280;15317;50.360;8.726;2022-12-07T15:19:39;99256.56;;;3.84;100.00
27984;BME280;15317;50.360;8.726;2022-12-07T15:23:42;99254.63;;;3.86;100.00
27984;BME280;15317;50.360;8.726;2022-12-07T15:27:44;99254.00;;;3.82;100.00
27984;BME280;15317;50.360;8.726;2022-12-07T15:31:48;99249.75;;;3.80;100.00
27984;BME280;15317;50.360;8.726;2022-12-07T15:35:50;99253.16;;;3.82;100.00
27984;BME280;15317;50.360;8.726;2022-12-07T15:39:54;99244.59;;;3.88;100.00
27984;BME280;15317;50.360;8.726;2022-12-07T15:43:56;99246.78;;;3.83;100.00
27984;BME280;15317;50.360;8.726;2022-12-07T15:48:15;99233.84;;;3.77;100.00
27984;BME280;15317;50.360;8.726;2022-12-07T15:52:18;99239.50;;;3.74;100.00
27984;BME280;15317;50.360;8.726;2022-12-07T15:56:21;99228.97;;;3.71;100.00
27984;BME280;15317;50.360;8.726;2022-12-07T16:00:23;99238.28;;;3.67;100.00
27984;BME280;15317;50.360;8.726;2022-12-07T16:04:27;99238.50;;;3.64;100.00
27984;BME280;15317;50.360;8.726;2022-12-07T16:08:30;99222.88;;;3.57;100.00
27984;BME280;15317;50.360;8.726;2022-12-07T16:12:33;99220.06;;;3.59;100.00
27984;BME280;15317;50.360;8.726;2022-12-07T16:16:35;99221.78;;;3.60;100.00
27984;BME280;15317;50.360;8.726;2022-12-07T16:20:38;99209.84;;;3.53;100.00
27984;BME280;15317;50.360;8.726;2022-12-07T16:24:40;99219.94;;;3.49;100.00
27984;BME280;15317;50.360;8.726;2022-12-07T16:28:44;99224.81;;;3.55;100.00
27984;BME280;15317;50.360;8.726;2022-12-07T16:32:46;99223.38;;;3.51;100.00
27984;BME280;15317;50.360;8.726;2022-12-07T16:36:48;99222.38;;;3.41;100.00
27984;BME280;15317;50.360;8.726;2022-12-07T16:40:51;99218.00;;;3.40;100.00
27984;BME280;15317;50.360;8.726;2022-12-07T16:44:54;99223.50;;;3.39;100.00
27984;BME280;15317;50.360;8.726;2022-12-07T16:48:56;99206.53;;;3.38;100.00
27984;BME280;15317;50.360;8.726;2022-12-07T16:52:58;99204.59;;;3.40;100.00
27984;BME280;15317;50.360;8.726;2022-12-07T16:57:00;99210.56;;;3.44;100.00
27984;BME280;15317;50.360;8.726;2022-12-07T17:01:10;99202.13;;;3.48;100.00
27984;BME280;15317;50.360;8.726;2022-12-07T17:05:12;99199.31;;;3.50;100.00
27984;BME280;15317;50.360;8.726;2022-12-07T17:09:15;99195.06;;;3.47;100.00
27984;BME280;15317;50.360;8.726;2022-12-07T17:13:17;99194.22;;;3.47;100.00
27984;BME280;15317;50.360;8.726;2022-12-07T17:17:38;99198.09;;;3.43;100.00
27984;BME280;15317;50.360;8.726;2022-12-07T17:21:42;99186.00;;;3.48;100.00
27984;BME280;15317;50.360;8.726;2022-12-07T17:25:45;99195.44;;;3.54;100.00
27984;BME280;15317;50.360;8.726;2022-12-07T17:29:47;99197.13;;;3.55;100.00
27984;BME280;15317;50.360;8.726;2022-12-07T17:33:51;99194.09;;;3.60;100.00
27984;BME280;15317;50.360;8.726;2022-12-07T17:37:53;99188.72;;;3.60;100.00
27984;BME280;15317;50.360;8.726;2022-12-07T17:41:56;99188.22;;;3.66;100.00
27984;BME280;15317;50.360;8.726;2022-12-07T17:46:16;99182.09;;;3.75;100.00
27984;BME280;15317;50.360;8.726;2022-12-07T17:50:19;99180.41;;;3.74;100.00
27984;BME280;15317;50.360;8.726;2022-12-07T17:54:42;99180.13;;;3.77;100.00
27984;BME280;15317;50.360;8.726;2022-12-07T17:58:44;99187.94;;;3.69;100.00
27984;BME280;15317;50.360;8.726;2022-12-07T18:02:46;99188.69;;;3.71;100.00
27984;BME280;15317;50.360;8.726;2022-12-07T18:06:50;99188.34;;;3.75;100.00
27984;BME280;15317;50.360;8.726;2022-12-07T18:10:57;99180.91;;;3.68;100.00
27984;BME280;15317;50.360;8.726;2022-12-07T18:14:59;99179.88;;;3.69;100.00
27984;BME280;15317;50.360;8.726;2022-12-07T18:19:02;99179.66;;;3.72;100.00
27984;BME280;15317;50.360;8.726;2022-12-07T18:23:06;99166.72;;;3.66;100.00
27984;BME280;15317;50.360;8.726;2022-12-07T18:27:08;99175.75;;;3.65;100.00
27984;BME280;15317;50.360;8.726;2022-12-07T18:31:11;99166.25;;;3.61;100.00
27984;BME280;15317;50.360;8.726;2022-12-07T18:35:14;99161.00;;;3.59;100.00
27984;BME280;15317;50.360;8.726;2022-12-07T18:39:18;99159.53;;;3.55;100.00
27984;BME280;15317;50.360;8.726;2022-12-07T18:43:20;99160.38;;;3.55;100.00
27984;BME280;15317;50.360;8.726;2022-12-07T18:47:24;99162.34;;;3.53;100.00
27984;BME280;15317;50.360;8.726;2022-12-07T18:51:27;99156.97;;;3.53;100.00
27984;BME280;15317;50.360;8.726;2022-12-07T18:55:31;99153.31;;;3.54;100.00
27984;BME280;15317;50.360;8.726;2022-12-07T18:59:34;99150.38;;;3.57;100.00
27984;BME280;15317;50.360;8.726;2022-12-07T19:03:49;99149.28;;;3.60;100.00
27984;BME280;15317;50.360;8.726;2022-12-07T19:07:51;99151.81;;;3.73;100.00
27984;BME280;15317;50.360;8.726;2022-12-07T19:11:55;99147.66;;;3.69;100.00
27984;BME280;15317;50.360;8.726;2022-12-07T19:16:05;99139.59;;;3.69;100.00
27984;BME280;15317;50.360;8.726;2022-12-07T19:20:11;99140.47;;;3.69;100.00
27984;BME280;15317;50.360;8.726;2022-12-07T19:24:15;99135.09;;;3.69;100.00
27984;BME280;15317;50.360;8.726;2022-12-07T19:28:18;99131.34;;;3.61;100.00
27984;BME280;15317;50.360;8.726;2022-12-07T19:32:20;99130.97;;;3.65;100.00
27984;BME280;15317;50.360;8.726;2022-12-07T19:36:23;99126.56;;;3.64;100.00
27984;BME280;15317;50.360;8.726;2022-12-07T19:40:25;99128.88;;;3.69;100.00
27984;BME280;15317;50.360;8.726;2022-12-07T19:44:28;99130.06;;;3.76;100.00
27984;BME280;15317;50.360;8.726;2022-12-07T19:48:32;99119.59;;;3.73;100.00
27984;BME280;15317;50.360;8.726;2022-12-07T19:52:34;99121.03;;;3.77;100.00
27984;BME280;15317;50.360;8.726;2022-12-07T19:56:36;99121.03;;;3.77;100.00
27984;BME280;15317;50.360;8.726;2022-12-07T20:00:39;99121.78;;;3.79;100.00
27984;BME280;15317;50.360;8.726;2022-12-07T20:04:41;99125.19;;;3.70;100.00
27984;BME280;15317;50.360;8.726;2022-12-07T20:08:44;99110.34;;;3.66;100.00
27984;BME280;15317;50.360;8.726;2022-12-07T20:12:47;99107.53;;;3.67;100.00
27984;BME280;15317;50.360;8.726;2022-12-07T20:17:08;99106.78;;;3.65;100.00
27984;BME280;15317;50.360;8.726;2022-12-07T20:21:11;99106.78;;;3.65;100.00
27984;BME280;15317;50.360;8.726;2022-12-07T20:25:13;99096.28;;;3.62;100.00
27984;BME280;15317;50.360;8.726;2022-12-07T20:29:18;99103.63;;;3.60;100.00
27984;BME280;15317;50.360;8.726;2022-12-07T20:33:23;99109.25;;;3.57;100.00
27984;BME280;15317;50.360;8.726;2022-12-07T20:37:25;99107.69;;;3.54;100.00
27984;BME280;15317;50.360;8.726;2022-12-07T20:41:27;99107.19;;;3.49;100.00
27984;BME280;15317;50.360;8.726;2022-12-07T20:45:48;99096.94;;;3.43;100.00
27984;BME280;15317;50.360;8.726;2022-12-07T20:49:52;99098.88;;;3.41;100.00
27984;BME280;15317;50.360;8.726;2022-12-07T20:53:54;99092.06;;;3.37;100.00
27984;BME280;15317;50.360;8.726;2022-12-07T20:57:56;99089.50;;;3.36;100.00
27984;BME280;15317;50.360;8.726;2022-12-07T21:01:58;99088.66;;;3.35;100.00
27984;BME280;15317;50.360;8.726;2022-12-07T21:06:03;99079.75;;;3.35;100.00
27984;BME280;15317;50.360;8.726;2022-12-07T21:10:06;99075.22;;;3.35;100.00
27984;BME280;15317;50.360;8.726;2022-12-07T21:14:08;99076.22;;;3.34;100.00
27984;BME280;15317;50.360;8.726;2022-12-07T21:18:11;99062.06;;;3.32;100.00
27984;BME280;15317;50.360;8.726;2022-12-07T21:22:14;99048.91;;;3.29;100.00
27984;BME280;15317;50.360;8.726;2022-12-07T21:26:18;99061.47;;;3.29;100.00
27984;BME280;15317;50.360;8.726;2022-12-07T21:30:20;99059.91;;;3.26;100.00
27984;BME280;15317;50.360;8.726;2022-12-07T21:34:22;99061.97;;;3.23;100.00
27984;BME280;15317;50.360;8.726;2022-12-07T21:38:26;99051.00;;;3.26;100.00
27984;BME280;15317;50.360;8.726;2022-12-07T21:42:28;99049.63;;;3.31;100.00
27984;BME280;15317;50.360;8.726;2022-12-07T21:46:30;99042.94;;;3.26;100.00
27984;BME280;15317;50.360;8.726;2022-12-07T21:50:33;99048.66;;;3.21;100.00